sensor_id;sensor_type;location;lat;lon;timestamp;temperature;humidity
752;DHT22;360;48.764;9.164;2022-12-29T00:02:09;7.30;99.90
752;DHT22;360;48.764;9.164;2022-12-29T00:04:36;7.30;99.90
752;DHT22;360;48.764;9.164;2022-12-29T00:07:04;7.30;99.90
752;DHT22;360;48.764;9.164;2022-12-29T00:09:31;7.30;1.00
752;DHT22;360;48.764;9.164;2022-12-29T00:11:58;7.30;99.90
752;DHT22;360;48.764;9.164;2022-12-29T00:14:25;7.40;99.90
752;DHT22;360;48.764;9.164;2022-12-29T00:17:10;7.40;99.90
752;DHT22;360;48.764;9.164;2022-12-29T00:19:37;7.60;1.00
752;DHT22;360;48.764;9.164;2022-12-29T00:22:22;7.50;1.00
752;DHT22;360;48.764;9.164;2022-12-29T00:25:08;7.50;1.00
752;DHT22;360;48.764;9.164;2022-12-29T00:28:04;7.60;1.00
752;DHT22;360;48.764;9.164;2022-12-29T00:30:49;7.60;1.00
752;DHT22;360;48.764;9.164;2022-12-29T00:33:33;7.50;1.00
752;DHT22;360;48.764;9.164;2022-12-29T00:36:19;7.50;1.00
752;DHT22;360;48.764;9.164;2022-12-29T00:38:52;7.50;99.90
752;DHT22;360;48.764;9.164;2022-12-29T00:41:37;7.60;27.90
752;DHT22;360;48.764;9.164;2022-12-29T00:44:21;7.60;99.90
752;DHT22;360;48.764;9.164;2022-12-29T00:46:48;7.50;1.00
752;DHT22;360;48.764;9.164;2022-12-29T00:49:15;7.60;1.00
752;DHT22;360;48.764;9.164;2022-12-29T00:51:57;7.60;1.00
752;DHT22;360;48.764;9.164;2022-12-29T00:54:28;7.60;99.90
752;DHT22;360;48.764;9.164;2022-12-29T00:56:55;7.70;99.90
752;DHT22;360;48.764;9.164;2022-12-29T00:59:22;7.70;99.90
752;DHT22;360;48.764;9.164;2022-12-29T01:01:50;7.70;99.90
752;DHT22;360;48.764;9.164;2022-12-29T01:04:18;7.60;1.00
752;DHT22;360;48.764;9.164;2022-12-29T01:06:45;7.60;99.90
752;DHT22;360;48.764;9.164;2022-12-29T01:09:13;7.70;99.90
752;DHT22;360;48.764;9.164;2022-12-29T01:11:59;7.80;99.90
752;DHT22;360;48.764;9.164;2022-12-29T01:14:26;7.90;1.00
752;DHT22;360;48.764;9.164;2022-12-29T01:16:53;7.80;1.00
752;DHT22;360;48.764;9.164;2022-12-29T01:19:20;7.90;1.00
752;DHT22;360;48.764;9.164;2022-12-29T01:21:47;7.90;1.00
752;DHT22;360;48.764;9.164;2022-12-29T01:24:15;7.90;99.90
752;DHT22;360;48.764;9.164;2022-12-29T01:26:42;8.00;99.90
752;DHT22;360;48.764;9.164;2022-12-29T01:29:10;8.00;99.90
752;DHT22;360;48.764;9.164;2022-12-29T01:31:37;8.00;99.90
752;DHT22;360;48.764;9.164;2022-12-29T01:34:04;8.00;99.90
752;DHT22;360;48.764;9.164;2022-12-29T01:36:32;8.00;1.00
752;DHT22;360;48.764;9.164;2022-12-29T01:38:59;8.00;1.00
752;DHT22;360;48.764;9.164;2022-12-29T01:41:26;7.90;1.00
752;DHT22;360;48.764;9.164;2022-12-29T01:43:55;7.90;99.90
752;DHT22;360;48.764;9.164;2022-12-29T01:46:26;7.90;99.90
752;DHT22;360;48.764;9.164;2022-12-29T01:48:57;7.90;1.00
752;DHT22;360;48.764;9.164;2022-12-29T01:51:26;7.90;99.90
752;DHT22;360;48.764;9.164;2022-12-29T01:53:56;7.90;99.90
752;DHT22;360;48.764;9.164;2022-12-29T01:56:24;8.00;99.90
752;DHT22;360;48.764;9.164;2022-12-29T01:58:58;8.00;99.90
752;DHT22;360;48.764;9.164;2022-12-29T02:01:27;8.00;99.90
752;DHT22;360;48.764;9.164;2022-12-29T02:03:54;8.10;99.90
752;DHT22;360;48.764;9.164;2022-12-29T02:06:22;8.00;99.90
752;DHT22;360;48.764;9.164;2022-12-29T02:08:53;8.00;1.00
752;DHT22;360;48.764;9.164;2022-12-29T02:11:23;8.00;99.90
752;DHT22;360;48.764;9.164;2022-12-29T02:13:50;8.00;1.00
752;DHT22;360;48.764;9.164;2022-12-29T02:16:39;7.80;1.00
752;DHT22;360;48.764;9.164;2022-12-29T02:19:31;7.90;1.00
752;DHT22;360;48.764;9.164;2022-12-29T02:22:12;7.80;1.00
752;DHT22;360;48.764;9.164;2022-12-29T02:25:06;7.90;1.00
752;DHT22;360;48.764;9.164;2022-12-29T02:28:03;7.70;99.90
752;DHT22;360;48.764;9.164;2022-12-29T02:30:44;7.80;99.90
752;DHT22;360;48.764;9.164;2022-12-29T02:33:32;7.80;99.30
752;DHT22;360;48.764;9.164;2022-12-29T02:36:06;7.80;94.00
752;DHT22;360;48.764;9.164;2022-12-29T02:38:48;7.60;99.90
752;DHT22;360;48.764;9.164;2022-12-29T02:41:19;7.70;99.90
752;DHT22;360;48.764;9.164;2022-12-29T02:43:50;7.70;99.90
752;DHT22;360;48.764;9.164;2022-12-29T02:46:26;7.70;99.90
752;DHT22;360;48.764;9.164;2022-12-29T02:49:01;7.80;99.90
752;DHT22;360;48.764;9.164;2022-12-29T02:51:32;7.80;99.90
752;DHT22;360;48.764;9.164;2022-12-29T02:54:00;7.80;99.90
752;DHT22;360;48.764;9.164;2022-12-29T02:56:45;7.80;99.90
752;DHT22;360;48.764;9.164;2022-12-29T02:59:12;7.80;99.90
752;DHT22;360;48.764;9.164;2022-12-29T03:01:51;7.80;99.90
752;DHT22;360;48.764;9.164;2022-12-29T03:04:43;7.80;99.90
752;DHT22;360;48.764;9.164;2022-12-29T03:07:15;7.70;99.90
752;DHT22;360;48.764;9.164;2022-12-29T03:09:52;7.70;99.90
752;DHT22;360;48.764;9.164;2022-12-29T03:12:26;7.60;1.00
752;DHT22;360;48.764;9.164;2022-12-29T03:15:20;7.60;1.00
752;DHT22;360;48.764;9.164;2022-12-29T03:18:10;7.70;1.00
752;DHT22;360;48.764;9.164;2022-12-29T03:20:46;7.80;99.90
752;DHT22;360;48.764;9.164;2022-12-29T03:23:16;7.80;99.90
752;DHT22;360;48.764;9.164;2022-12-29T03:25:47;7.80;99.90
752;DHT22;360;48.764;9.164;2022-12-29T03:28:20;7.70;99.90
752;DHT22;360;48.764;9.164;2022-12-29T03:30:48;7.80;99.90
752;DHT22;360;48.764;9.164;2022-12-29T03:33:19;7.80;99.90
752;DHT22;360;48.764;9.164;2022-12-29T03:35:49;7.90;99.90
752;DHT22;360;48.764;9.164;2022-12-29T03:38:21;7.80;99.90
752;DHT22;360;48.764;9.164;2022-12-29T03:40:51;7.90;99.90
752;DHT22;360;48.764;9.164;2022-12-29T03:43:19;7.90;99.90
752;DHT22;360;48.764;9.164;2022-12-29T03:45:46;7.90;99.90
752;DHT22;360;48.764;9.164;2022-12-29T03:48:13;8.00;99.90
752;DHT22;360;48.764;9.164;2022-12-29T03:50:41;8.30;1.00
752;DHT22;360;48.764;9.164;2022-12-29T03:53:08;8.60;1.00
752;DHT22;360;48.764;9.164;2022-12-29T03:55:35;9.20;99.90
752;DHT22;360;48.764;9.164;2022-12-29T05:14:35;9.70;99.90
752;DHT22;360;48.764;9.164;2022-12-29T05:17:01;11.40;1.00
752;DHT22;360;48.764;9.164;2022-12-29T05:19:28;11.40;1.00
752;DHT22;360;48.764;9.164;2022-12-29T05:21:55;11.40;1.00
752;DHT22;360;48.764;9.164;2022-12-29T05:24:22;11.20;1.00
752;DHT22;360;48.764;9.164;2022-12-29T05:26:49;11.30;1.00
752;DHT22;360;48.764;9.164;2022-12-29T05:29:15;11.30;1.00
752;DHT22;360;48.764;9.164;2022-12-29T05:31:44;11.10;1.00
752;DHT22;360;48.764;9.164;2022-12-29T05:34:11;11.10;1.00
752;DHT22;360;48.764;9.164;2022-12-29T05:36:38;10.90;1.00
752;DHT22;360;48.764;9.164;2022-12-29T05:39:04;11.10;1.00
752;DHT22;360;48.764;9.164;2022-12-29T05:41:33;11.10;1.00
752;DHT22;360;48.764;9.164;2022-12-29T05:44:00;11.20;1.00
752;DHT22;360;48.764;9.164;2022-12-29T05:46:26;11.00;1.00
752;DHT22;360;48.764;9.164;2022-12-29T05:48:55;11.10;1.00
752;DHT22;360;48.764;9.164;2022-12-29T05:51:21;11.10;1.00
752;DHT22;360;48.764;9.164;2022-12-29T05:53:48;11.20;1.00
752;DHT22;360;48.764;9.164;2022-12-29T05:56:15;11.20;1.00
752;DHT22;360;48.764;9.164;2022-12-29T05:58:42;11.20;1.00
752;DHT22;360;48.764;9.164;2022-12-29T06:01:09;11.30;1.00
752;DHT22;360;48.764;9.164;2022-12-29T06:03:35;11.40;1.00
752;DHT22;360;48.764;9.164;2022-12-29T06:06:04;11.30;1.00
752;DHT22;360;48.764;9.164;2022-12-29T06:08:31;11.30;1.00
752;DHT22;360;48.764;9.164;2022-12-29T06:10:58;11.20;1.00
752;DHT22;360;48.764;9.164;2022-12-29T06:13:25;11.10;1.00
752;DHT22;360;48.764;9.164;2022-12-29T06:15:53;11.10;1.00
752;DHT22;360;48.764;9.164;2022-12-29T06:20:47;11.10;1.00
752;DHT22;360;48.764;9.164;2022-12-29T06:23:15;11.10;1.00
752;DHT22;360;48.764;9.164;2022-12-29T06:25:43;11.10;1.00
752;DHT22;360;48.764;9.164;2022-12-29T06:28:10;11.10;1.00
752;DHT22;360;48.764;9.164;2022-12-29T06:30:37;11.10;1.00
752;DHT22;360;48.764;9.164;2022-12-29T06:33:04;11.00;1.00
752;DHT22;360;48.764;9.164;2022-12-29T06:35:33;11.00;1.00
752;DHT22;360;48.764;9.164;2022-12-29T06:38:00;10.90;1.00
752;DHT22;360;48.764;9.164;2022-12-29T06:40:28;10.90;1.00
752;DHT22;360;48.764;9.164;2022-12-29T06:42:55;11.00;1.00
752;DHT22;360;48.764;9.164;2022-12-29T06:45:22;10.90;1.00
752;DHT22;360;48.764;9.164;2022-12-29T06:47:48;11.00;1.00
752;DHT22;360;48.764;9.164;2022-12-29T06:50:15;11.00;1.00
752;DHT22;360;48.764;9.164;2022-12-29T06:52:42;10.90;1.00
752;DHT22;360;48.764;9.164;2022-12-29T06:55:09;10.80;1.00
752;DHT22;360;48.764;9.164;2022-12-29T06:57:37;10.80;1.00
752;DHT22;360;48.764;9.164;2022-12-29T07:00:05;10.80;1.00
752;DHT22;360;48.764;9.164;2022-12-29T07:02:32;10.80;1.00
752;DHT22;360;48.764;9.164;2022-12-29T07:04:59;10.70;1.00
752;DHT22;360;48.764;9.164;2022-12-29T07:07:26;10.70;1.00
752;DHT22;360;48.764;9.164;2022-12-29T07:09:52;10.70;1.00
752;DHT22;360;48.764;9.164;2022-12-29T07:12:19;10.60;1.00
752;DHT22;360;48.764;9.164;2022-12-29T07:14:47;10.50;1.00
752;DHT22;360;48.764;9.164;2022-12-29T07:17:14;10.50;1.00
752;DHT22;360;48.764;9.164;2022-12-29T07:19:41;10.60;1.00
752;DHT22;360;48.764;9.164;2022-12-29T07:22:09;10.50;1.00
752;DHT22;360;48.764;9.164;2022-12-29T07:24:36;10.40;1.00
752;DHT22;360;48.764;9.164;2022-12-29T07:27:03;10.50;1.00
752;DHT22;360;48.764;9.164;2022-12-29T07:29:30;10.40;1.00
752;DHT22;360;48.764;9.164;2022-12-29T07:31:58;10.50;1.00
752;DHT22;360;48.764;9.164;2022-12-29T07:34:25;10.40;1.00
752;DHT22;360;48.764;9.164;2022-12-29T07:36:52;10.30;1.00
752;DHT22;360;48.764;9.164;2022-12-29T07:39:18;10.20;1.00
752;DHT22;360;48.764;9.164;2022-12-29T07:41:45;10.00;1.00
752;DHT22;360;48.764;9.164;2022-12-29T07:44:12;10.10;1.00
752;DHT22;360;48.764;9.164;2022-12-29T07:46:39;10.00;1.00
752;DHT22;360;48.764;9.164;2022-12-29T07:49:07;10.10;1.00
752;DHT22;360;48.764;9.164;2022-12-29T07:51:34;10.20;1.00
752;DHT22;360;48.764;9.164;2022-12-29T07:54:00;10.30;1.00
752;DHT22;360;48.764;9.164;2022-12-29T07:56:27;10.30;1.00
752;DHT22;360;48.764;9.164;2022-12-29T07:58:54;10.30;1.00
752;DHT22;360;48.764;9.164;2022-12-29T08:01:21;10.30;1.00
752;DHT22;360;48.764;9.164;2022-12-29T08:03:48;10.40;1.00
752;DHT22;360;48.764;9.164;2022-12-29T08:06:17;10.40;1.00
752;DHT22;360;48.764;9.164;2022-12-29T08:08:45;10.60;1.00
752;DHT22;360;48.764;9.164;2022-12-29T08:11:12;10.40;1.00
752;DHT22;360;48.764;9.164;2022-12-29T08:13:39;10.30;1.00
752;DHT22;360;48.764;9.164;2022-12-29T08:16:06;10.40;1.00
752;DHT22;360;48.764;9.164;2022-12-29T08:18:33;10.20;1.00
752;DHT22;360;48.764;9.164;2022-12-29T08:21:02;10.10;53.20
752;DHT22;360;48.764;9.164;2022-12-29T08:23:30;10.10;99.90
752;DHT22;360;48.764;9.164;2022-12-29T08:25:58;10.20;99.90
752;DHT22;360;48.764;9.164;2022-12-29T08:28:25;10.20;99.90
752;DHT22;360;48.764;9.164;2022-12-29T08:30:51;10.10;99.90
752;DHT22;360;48.764;9.164;2022-12-29T08:33:18;10.10;99.90
752;DHT22;360;48.764;9.164;2022-12-29T08:35:45;10.10;99.90
752;DHT22;360;48.764;9.164;2022-12-29T08:38:12;10.10;99.90
752;DHT22;360;48.764;9.164;2022-12-29T08:40:40;10.00;1.00
752;DHT22;360;48.764;9.164;2022-12-29T08:43:07;10.00;1.00
752;DHT22;360;48.764;9.164;2022-12-29T08:45:33;10.00;1.00
752;DHT22;360;48.764;9.164;2022-12-29T08:48:00;9.90;1.00
752;DHT22;360;48.764;9.164;2022-12-29T08:50:27;10.20;99.90
752;DHT22;360;48.764;9.164;2022-12-29T08:52:54;10.10;99.90
752;DHT22;360;48.764;9.164;2022-12-29T08:55:21;10.00;1.00
752;DHT22;360;48.764;9.164;2022-12-29T08:57:49;10.00;1.00
752;DHT22;360;48.764;9.164;2022-12-29T09:00:16;10.00;1.00
752;DHT22;360;48.764;9.164;2022-12-29T09:02:43;10.00;1.00
752;DHT22;360;48.764;9.164;2022-12-29T09:05:09;10.30;99.90
752;DHT22;360;48.764;9.164;2022-12-29T09:07:36;10.60;1.00
752;DHT22;360;48.764;9.164;2022-12-29T09:10:04;10.70;1.00
752;DHT22;360;48.764;9.164;2022-12-29T09:12:31;10.90;1.00
752;DHT22;360;48.764;9.164;2022-12-29T09:15:00;11.10;1.00
752;DHT22;360;48.764;9.164;2022-12-29T09:17:27;11.20;1.00
752;DHT22;360;48.764;9.164;2022-12-29T09:20:13;11.20;1.00
752;DHT22;360;48.764;9.164;2022-12-29T09:22:40;11.30;1.00
752;DHT22;360;48.764;9.164;2022-12-29T09:25:08;11.50;1.00
752;DHT22;360;48.764;9.164;2022-12-29T09:27:35;11.60;1.00
752;DHT22;360;48.764;9.164;2022-12-29T09:30:05;11.60;1.00
752;DHT22;360;48.764;9.164;2022-12-29T09:32:33;11.60;1.00
752;DHT22;360;48.764;9.164;2022-12-29T09:34:59;11.70;1.00
752;DHT22;360;48.764;9.164;2022-12-29T09:37:26;11.90;1.00
752;DHT22;360;48.764;9.164;2022-12-29T09:39:53;11.90;1.00
752;DHT22;360;48.764;9.164;2022-12-29T09:42:24;12.00;1.00
752;DHT22;360;48.764;9.164;2022-12-29T09:45:00;12.10;99.90
752;DHT22;360;48.764;9.164;2022-12-29T09:47:32;12.10;99.90
752;DHT22;360;48.764;9.164;2022-12-29T09:50:03;12.20;99.90
752;DHT22;360;48.764;9.164;2022-12-29T09:52:34;12.30;99.90
752;DHT22;360;48.764;9.164;2022-12-29T09:55:04;12.40;99.90
752;DHT22;360;48.764;9.164;2022-12-29T09:57:38;12.50;99.90
752;DHT22;360;48.764;9.164;2022-12-29T10:00:12;12.60;99.90
752;DHT22;360;48.764;9.164;2022-12-29T10:02:44;12.70;99.90
752;DHT22;360;48.764;9.164;2022-12-29T10:05:31;12.70;99.90
752;DHT22;360;48.764;9.164;2022-12-29T10:08:19;12.90;99.90
752;DHT22;360;48.764;9.164;2022-12-29T10:10:53;12.90;99.90
752;DHT22;360;48.764;9.164;2022-12-29T10:13:33;12.90;99.90
752;DHT22;360;48.764;9.164;2022-12-29T10:16:09;13.00;99.90
752;DHT22;360;48.764;9.164;2022-12-29T10:18:54;13.00;99.90
752;DHT22;360;48.764;9.164;2022-12-29T10:21:33;12.90;99.90
752;DHT22;360;48.764;9.164;2022-12-29T10:24:03;12.90;99.90
752;DHT22;360;48.764;9.164;2022-12-29T10:26:37;13.10;99.90
752;DHT22;360;48.764;9.164;2022-12-29T10:29:06;13.00;99.90
752;DHT22;360;48.764;9.164;2022-12-29T10:31:41;13.10;99.90
752;DHT22;360;48.764;9.164;2022-12-29T10:34:17;13.20;99.90
752;DHT22;360;48.764;9.164;2022-12-29T10:36:47;13.30;99.90
752;DHT22;360;48.764;9.164;2022-12-29T10:39:21;13.40;99.90
752;DHT22;360;48.764;9.164;2022-12-29T10:41:51;13.40;99.90
752;DHT22;360;48.764;9.164;2022-12-29T10:44:19;13.50;99.90
752;DHT22;360;48.764;9.164;2022-12-29T10:46:54;13.60;99.90
752;DHT22;360;48.764;9.164;2022-12-29T10:49:25;13.70;99.90
752;DHT22;360;48.764;9.164;2022-12-29T10:51:56;13.70;99.90
752;DHT22;360;48.764;9.164;2022-12-29T10:54:26;13.80;99.90
752;DHT22;360;48.764;9.164;2022-12-29T10:56:57;13.90;99.90
752;DHT22;360;48.764;9.164;2022-12-29T10:59:29;14.10;99.90
752;DHT22;360;48.764;9.164;2022-12-29T11:02:00;14.20;99.90
752;DHT22;360;48.764;9.164;2022-12-29T11:04:52;14.20;99.90
752;DHT22;360;48.764;9.164;2022-12-29T11:07:22;14.20;99.90
752;DHT22;360;48.764;9.164;2022-12-29T11:09:48;14.10;99.90
752;DHT22;360;48.764;9.164;2022-12-29T11:12:21;14.10;99.90
752;DHT22;360;48.764;9.164;2022-12-29T11:15:11;14.00;99.90
752;DHT22;360;48.764;9.164;2022-12-29T11:17:44;13.90;99.90
752;DHT22;360;48.764;9.164;2022-12-29T11:20:33;14.00;99.90
752;DHT22;360;48.764;9.164;2022-12-29T11:23:02;13.90;99.90
752;DHT22;360;48.764;9.164;2022-12-29T11:25:29;13.90;99.90
752;DHT22;360;48.764;9.164;2022-12-29T11:27:57;13.80;99.90
752;DHT22;360;48.764;9.164;2022-12-29T11:30:27;13.70;99.90
752;DHT22;360;48.764;9.164;2022-12-29T11:32:54;13.70;99.90
752;DHT22;360;48.764;9.164;2022-12-29T11:35:34;13.60;99.90
752;DHT22;360;48.764;9.164;2022-12-29T11:38:02;13.60;99.90
752;DHT22;360;48.764;9.164;2022-12-29T11:40:30;13.60;99.90
752;DHT22;360;48.764;9.164;2022-12-29T11:42:59;13.50;99.90
752;DHT22;360;48.764;9.164;2022-12-29T11:45:30;13.30;99.90
752;DHT22;360;48.764;9.164;2022-12-29T11:48:00;13.10;99.90
752;DHT22;360;48.764;9.164;2022-12-29T11:50:30;13.00;1.00
752;DHT22;360;48.764;9.164;2022-12-29T11:53:02;12.90;1.00
752;DHT22;360;48.764;9.164;2022-12-29T11:55:30;12.90;1.00
752;DHT22;360;48.764;9.164;2022-12-29T11:57:58;12.90;1.00
752;DHT22;360;48.764;9.164;2022-12-29T12:00:28;12.90;1.00
752;DHT22;360;48.764;9.164;2022-12-29T12:02:58;12.90;1.00
752;DHT22;360;48.764;9.164;2022-12-29T12:05:33;12.90;1.00
752;DHT22;360;48.764;9.164;2022-12-29T12:08:09;12.80;1.00
752;DHT22;360;48.764;9.164;2022-12-29T12:10:41;12.90;1.00
752;DHT22;360;48.764;9.164;2022-12-29T12:13:22;12.90;1.00
752;DHT22;360;48.764;9.164;2022-12-29T12:15:55;12.80;1.00
752;DHT22;360;48.764;9.164;2022-12-29T12:18:32;12.90;1.00
752;DHT22;360;48.764;9.164;2022-12-29T12:21:06;13.00;1.00
752;DHT22;360;48.764;9.164;2022-12-29T12:23:44;13.00;1.00
752;DHT22;360;48.764;9.164;2022-12-29T12:26:16;13.00;1.00
752;DHT22;360;48.764;9.164;2022-12-29T12:28:49;13.00;1.00
752;DHT22;360;48.764;9.164;2022-12-29T12:31:25;13.00;1.00
752;DHT22;360;48.764;9.164;2022-12-29T12:33:57;13.10;1.00
752;DHT22;360;48.764;9.164;2022-12-29T12:39:24;13.10;1.00
752;DHT22;360;48.764;9.164;2022-12-29T12:42:02;13.10;1.00
752;DHT22;360;48.764;9.164;2022-12-29T12:44:36;13.10;1.00
752;DHT22;360;48.764;9.164;2022-12-29T12:50:18;12.70;99.90
752;DHT22;360;48.764;9.164;2022-12-29T12:53:21;12.60;99.90
752;DHT22;360;48.764;9.164;2022-12-29T12:56:03;12.70;99.90
752;DHT22;360;48.764;9.164;2022-12-29T12:58:42;12.70;99.90
752;DHT22;360;48.764;9.164;2022-12-29T13:01:18;12.80;99.90
752;DHT22;360;48.764;9.164;2022-12-29T13:04:02;12.70;99.90
752;DHT22;360;48.764;9.164;2022-12-29T13:06:38;12.70;99.90
752;DHT22;360;48.764;9.164;2022-12-29T13:09:27;12.80;99.90
752;DHT22;360;48.764;9.164;2022-12-29T13:12:07;12.80;99.90
752;DHT22;360;48.764;9.164;2022-12-29T13:14:43;12.90;99.90
752;DHT22;360;48.764;9.164;2022-12-29T13:17:20;12.90;99.90
752;DHT22;360;48.764;9.164;2022-12-29T13:19:55;12.90;99.90
752;DHT22;360;48.764;9.164;2022-12-29T13:22:29;13.00;99.90
752;DHT22;360;48.764;9.164;2022-12-29T13:25:15;13.00;7.60
752;DHT22;360;48.764;9.164;2022-12-29T13:27:52;13.10;1.00
752;DHT22;360;48.764;9.164;2022-12-29T13:30:23;13.00;1.00
752;DHT22;360;48.764;9.164;2022-12-29T13:32:59;13.00;31.20
752;DHT22;360;48.764;9.164;2022-12-29T13:35:42;13.00;11.30
752;DHT22;360;48.764;9.164;2022-12-29T13:38:13;12.90;76.40
752;DHT22;360;48.764;9.164;2022-12-29T13:40:47;12.90;99.90
752;DHT22;360;48.764;9.164;2022-12-29T13:43:18;12.80;99.90
752;DHT22;360;48.764;9.164;2022-12-29T13:45:58;12.80;99.90
752;DHT22;360;48.764;9.164;2022-12-29T13:48:34;12.80;99.90
752;DHT22;360;48.764;9.164;2022-12-29T13:51:02;12.80;99.90
752;DHT22;360;48.764;9.164;2022-12-29T13:53:36;12.80;99.90
752;DHT22;360;48.764;9.164;2022-12-29T13:56:09;12.80;99.90
752;DHT22;360;48.764;9.164;2022-12-29T13:58:44;12.80;99.90
752;DHT22;360;48.764;9.164;2022-12-29T14:01:17;12.70;99.90
752;DHT22;360;48.764;9.164;2022-12-29T14:03:48;12.60;99.90
752;DHT22;360;48.764;9.164;2022-12-29T14:06:20;12.70;99.90
752;DHT22;360;48.764;9.164;2022-12-29T14:08:50;12.70;99.90
752;DHT22;360;48.764;9.164;2022-12-29T14:11:18;12.70;99.90
752;DHT22;360;48.764;9.164;2022-12-29T14:13:48;12.80;99.90
752;DHT22;360;48.764;9.164;2022-12-29T14:16:26;12.80;99.90
752;DHT22;360;48.764;9.164;2022-12-29T14:18:54;12.80;99.90
752;DHT22;360;48.764;9.164;2022-12-29T14:21:24;12.80;99.90
752;DHT22;360;48.764;9.164;2022-12-29T14:26:43;12.70;99.90
752;DHT22;360;48.764;9.164;2022-12-29T14:29:43;12.50;1.00
752;DHT22;360;48.764;9.164;2022-12-29T14:32:36;12.60;1.00
752;DHT22;360;48.764;9.164;2022-12-29T14:35:36;12.60;1.00
752;DHT22;360;48.764;9.164;2022-12-29T14:38:27;12.60;1.00
752;DHT22;360;48.764;9.164;2022-12-29T14:41:16;12.50;1.00
752;DHT22;360;48.764;9.164;2022-12-29T14:43:53;12.50;1.00
752;DHT22;360;48.764;9.164;2022-12-29T14:46:22;12.40;1.00
752;DHT22;360;48.764;9.164;2022-12-29T14:48:55;12.50;1.00
752;DHT22;360;48.764;9.164;2022-12-29T14:51:34;12.50;1.00
752;DHT22;360;48.764;9.164;2022-12-29T14:57:03;12.50;99.90
752;DHT22;360;48.764;9.164;2022-12-29T14:59:33;12.40;1.00
752;DHT22;360;48.764;9.164;2022-12-29T15:02:05;12.30;1.00
752;DHT22;360;48.764;9.164;2022-12-29T15:04:39;12.20;1.00
752;DHT22;360;48.764;9.164;2022-12-29T15:07:08;12.20;91.30
752;DHT22;360;48.764;9.164;2022-12-29T15:09:37;12.30;1.00
752;DHT22;360;48.764;9.164;2022-12-29T15:12:14;12.30;1.00
752;DHT22;360;48.764;9.164;2022-12-29T15:14:50;12.20;1.00
752;DHT22;360;48.764;9.164;2022-12-29T15:17:25;12.10;1.00
752;DHT22;360;48.764;9.164;2022-12-29T15:19:52;12.00;99.90
752;DHT22;360;48.764;9.164;2022-12-29T15:22:20;12.10;1.00
752;DHT22;360;48.764;9.164;2022-12-29T15:24:48;12.10;1.00
752;DHT22;360;48.764;9.164;2022-12-29T15:27:19;12.10;1.00
752;DHT22;360;48.764;9.164;2022-12-29T15:29:47;12.00;1.00
752;DHT22;360;48.764;9.164;2022-12-29T15:32:23;12.00;1.00
752;DHT22;360;48.764;9.164;2022-12-29T15:34:52;12.00;1.00
752;DHT22;360;48.764;9.164;2022-12-29T15:37:22;12.00;99.90
752;DHT22;360;48.764;9.164;2022-12-29T15:39:49;12.00;99.90
752;DHT22;360;48.764;9.164;2022-12-29T15:42:41;11.90;1.00
752;DHT22;360;48.764;9.164;2022-12-29T15:45:11;12.00;99.90
752;DHT22;360;48.764;9.164;2022-12-29T15:47:42;12.20;99.90
752;DHT22;360;48.764;9.164;2022-12-29T15:50:17;12.20;99.90
752;DHT22;360;48.764;9.164;2022-12-29T15:52:46;12.20;99.90
752;DHT22;360;48.764;9.164;2022-12-29T15:55:20;12.30;99.90
752;DHT22;360;48.764;9.164;2022-12-29T15:57:48;12.30;99.90
752;DHT22;360;48.764;9.164;2022-12-29T16:00:22;12.30;99.90
752;DHT22;360;48.764;9.164;2022-12-29T16:02:52;12.30;99.90
752;DHT22;360;48.764;9.164;2022-12-29T16:05:20;12.10;99.90
752;DHT22;360;48.764;9.164;2022-12-29T16:07:54;11.80;1.00
752;DHT22;360;48.764;9.164;2022-12-29T16:10:26;11.50;1.00
752;DHT22;360;48.764;9.164;2022-12-29T16:12:54;11.30;99.90
752;DHT22;360;48.764;9.164;2022-12-29T16:15:21;11.10;99.90
752;DHT22;360;48.764;9.164;2022-12-29T16:17:50;11.00;99.90
752;DHT22;360;48.764;9.164;2022-12-29T16:20:21;10.90;1.00
752;DHT22;360;48.764;9.164;2022-12-29T16:22:50;10.80;99.90
752;DHT22;360;48.764;9.164;2022-12-29T16:25:22;10.70;99.90
752;DHT22;360;48.764;9.164;2022-12-29T16:27:50;10.70;99.90
752;DHT22;360;48.764;9.164;2022-12-29T16:30:21;10.60;99.90
752;DHT22;360;48.764;9.164;2022-12-29T16:32:50;10.60;1.00
752;DHT22;360;48.764;9.164;2022-12-29T16:35:21;10.50;99.90
752;DHT22;360;48.764;9.164;2022-12-29T16:37:48;10.50;1.00
752;DHT22;360;48.764;9.164;2022-12-29T16:40:27;10.70;1.00
752;DHT22;360;48.764;9.164;2022-12-29T16:42:56;10.70;99.90
752;DHT22;360;48.764;9.164;2022-12-29T16:48:45;10.60;99.90
752;DHT22;360;48.764;9.164;2022-12-29T16:51:15;10.60;1.00
752;DHT22;360;48.764;9.164;2022-12-29T16:53:48;10.60;1.00
752;DHT22;360;48.764;9.164;2022-12-29T16:56:18;10.60;1.00
752;DHT22;360;48.764;9.164;2022-12-29T16:58:47;10.60;1.00
752;DHT22;360;48.764;9.164;2022-12-29T17:01:14;10.50;1.00
752;DHT22;360;48.764;9.164;2022-12-29T17:03:47;10.40;1.00
752;DHT22;360;48.764;9.164;2022-12-29T17:06:18;10.40;40.90
752;DHT22;360;48.764;9.164;2022-12-29T17:08:46;10.30;89.40
752;DHT22;360;48.764;9.164;2022-12-29T17:11:21;10.30;69.30
752;DHT22;360;48.764;9.164;2022-12-29T17:14:20;10.20;58.40
752;DHT22;360;48.764;9.164;2022-12-29T17:16:48;10.20;86.20
752;DHT22;360;48.764;9.164;2022-12-29T17:19:17;10.30;99.90
752;DHT22;360;48.764;9.164;2022-12-29T17:21:45;10.20;99.90
752;DHT22;360;48.764;9.164;2022-12-29T17:24:16;10.20;99.90
752;DHT22;360;48.764;9.164;2022-12-29T17:26:46;10.30;99.90
752;DHT22;360;48.764;9.164;2022-12-29T17:29:19;10.30;99.90
752;DHT22;360;48.764;9.164;2022-12-29T17:31:47;10.40;99.90
752;DHT22;360;48.764;9.164;2022-12-29T17:34:14;10.30;99.90
752;DHT22;360;48.764;9.164;2022-12-29T17:36:41;10.20;99.90
752;DHT22;360;48.764;9.164;2022-12-29T17:39:10;10.20;99.90
752;DHT22;360;48.764;9.164;2022-12-29T17:41:37;10.20;99.90
752;DHT22;360;48.764;9.164;2022-12-29T17:44:04;10.20;99.90
752;DHT22;360;48.764;9.164;2022-12-29T17:46:31;10.20;99.90
752;DHT22;360;48.764;9.164;2022-12-29T17:48:59;10.10;99.90
752;DHT22;360;48.764;9.164;2022-12-29T17:51:26;10.10;99.90
752;DHT22;360;48.764;9.164;2022-12-29T17:53:53;10.10;99.90
752;DHT22;360;48.764;9.164;2022-12-29T17:56:22;10.00;99.90
752;DHT22;360;48.764;9.164;2022-12-29T17:58:49;10.10;99.90
752;DHT22;360;48.764;9.164;2022-12-29T18:01:17;10.10;99.90
752;DHT22;360;48.764;9.164;2022-12-29T18:03:46;10.10;99.90
752;DHT22;360;48.764;9.164;2022-12-29T18:06:13;10.20;99.90
752;DHT22;360;48.764;9.164;2022-12-29T18:08:40;10.20;99.90
752;DHT22;360;48.764;9.164;2022-12-29T18:11:19;10.10;99.90
752;DHT22;360;48.764;9.164;2022-12-29T18:13:48;10.30;99.90
752;DHT22;360;48.764;9.164;2022-12-29T18:16:15;10.30;99.90
752;DHT22;360;48.764;9.164;2022-12-29T18:18:42;10.10;99.90
752;DHT22;360;48.764;9.164;2022-12-29T18:21:15;10.20;99.90
752;DHT22;360;48.764;9.164;2022-12-29T18:23:43;10.20;99.90
752;DHT22;360;48.764;9.164;2022-12-29T18:26:16;10.10;99.90
752;DHT22;360;48.764;9.164;2022-12-29T18:28:43;9.80;99.90
752;DHT22;360;48.764;9.164;2022-12-29T18:31:17;9.70;99.90
752;DHT22;360;48.764;9.164;2022-12-29T18:33:45;9.80;99.90
752;DHT22;360;48.764;9.164;2022-12-29T18:36:13;9.70;99.90
752;DHT22;360;48.764;9.164;2022-12-29T18:38:40;9.70;99.90
752;DHT22;360;48.764;9.164;2022-12-29T18:41:16;9.60;99.90
752;DHT22;360;48.764;9.164;2022-12-29T18:43:44;9.80;99.90
752;DHT22;360;48.764;9.164;2022-12-29T18:46:11;9.80;99.90
752;DHT22;360;48.764;9.164;2022-12-29T18:48:40;9.90;99.90
752;DHT22;360;48.764;9.164;2022-12-29T18:51:14;9.90;99.90